Portada
METAR-TAF:

METAR-TAF

Aeroports :

Norwich, Anglaterra

latitud: 52-38N, longitud: 001-18E, altitud: 14 m

Observació

L'informe es va fer fa 26 minuts, a les 22:50 UTC
Vent 11 kt del Oest
Temperatura 3°C
Humitat 75%
Pressió 1011 hPa
Visibilitat 10 km o més

METAR: EGSH 272250Z AUTO 26011KT 9999 NCD 03/M01 Q1011

Hora: 23:16 (23:16 UTC)

Pronòstic

L'informe es va fer fa 3 hores i 24 minuts, a les 19:52 UTC
Pronòstic vàlid del 27 a les 21 UTC al 27 a les 24 UTC
Vent 12 kt del Oest/Nord-Oest
Visibilitat 10 km o més
Núvols disperses a una alçada de 4000 ft

TAF: EGSH 271952Z 2721/2724 29012KT 9999 SCT040

Observacions i pronòstics meteorològics de més de 4000 aeroports (METAR i TAF).

Les estacions disponibles són els punts grocs i vermells al mapa.

Posi el ratolí al punt desitjat per veure el nom de l'estació.

Feu clic per veure les observacions i els pronòstics meteorològics.

Per canviar el mapa: feu clic els botons verds amb una creu de color negre per apropar; al botó verd amb un guió per allunyar la imatge; o en les fletxes verdes per a mapes adjacents.


METAR-TAF: